createdAt,value
2019-05-15T00:01:08.839Z,9.23
2019-05-15T00:03:39.179Z,9.33
2019-05-15T00:06:09.706Z,9.05
2019-05-15T00:08:39.154Z,9.15
2019-05-15T00:11:08.865Z,9.15
2019-05-15T00:13:38.879Z,9.25
2019-05-15T00:16:08.727Z,9.06
2019-05-15T00:18:39.054Z,9.24
2019-05-15T00:21:09.481Z,9.22
2019-05-15T00:23:38.947Z,9.34
2019-05-15T00:26:09.228Z,9.00
2019-05-15T00:28:38.976Z,9.14
2019-05-15T00:31:09.221Z,9.21
2019-05-15T00:33:39.289Z,9.09
2019-05-15T00:36:09.024Z,9.04
2019-05-15T00:38:39.068Z,8.60
2019-05-15T00:41:09.688Z,8.89
2019-05-15T00:43:38.936Z,9.04
2019-05-15T00:46:09.151Z,8.89
2019-05-15T00:48:39.825Z,8.98
2019-05-15T00:51:09.463Z,8.94
2019-05-15T00:53:39.132Z,8.85
2019-05-15T00:56:08.842Z,8.97
2019-05-15T00:58:40.217Z,8.91
2019-05-15T01:01:09.530Z,8.65
2019-05-15T01:03:38.970Z,8.72
2019-05-15T01:06:08.512Z,8.91
2019-05-15T01:08:39.396Z,8.66
2019-05-15T01:11:09.138Z,8.60
2019-05-15T01:13:38.869Z,8.29
2019-05-15T01:16:09.251Z,8.72
2019-05-15T01:18:38.725Z,8.41
2019-05-15T01:21:08.615Z,8.26
2019-05-15T01:23:39.051Z,8.38
2019-05-15T01:26:08.519Z,8.39
2019-05-15T01:28:38.414Z,8.33
2019-05-15T01:31:08.634Z,8.21
2019-05-15T01:33:39.186Z,8.34
2019-05-15T01:36:08.689Z,8.54
2019-05-15T01:38:38.863Z,8.36
2019-05-15T01:41:09.757Z,8.47
2019-05-15T01:43:38.910Z,8.01
2019-05-15T01:46:08.676Z,8.07
2019-05-15T01:48:38.722Z,7.81
2019-05-15T01:51:09.302Z,8.01
2019-05-15T01:53:38.653Z,8.45
2019-05-15T01:56:08.436Z,8.35
2019-05-15T01:58:38.196Z,8.47
2019-05-15T02:01:08.369Z,8.05
2019-05-15T02:03:38.562Z,8.09
2019-05-15T02:06:08.559Z,8.11
2019-05-15T02:08:39.354Z,8.28
2019-05-15T02:11:09.215Z,8.47
2019-05-15T02:13:38.884Z,8.13
2019-05-15T02:16:09.137Z,8.22
2019-05-15T02:18:39.127Z,8.23
2019-05-15T02:21:10.303Z,7.82
2019-05-15T02:23:39.805Z,7.74
2019-05-15T02:26:09.307Z,8.16
2019-05-15T02:28:38.572Z,8.02
2019-05-15T02:31:10.518Z,8.09
2019-05-15T02:33:39.971Z,7.86
2019-05-15T02:36:10.485Z,7.67
2019-05-15T02:38:41.011Z,7.94
2019-05-15T02:41:10.958Z,8.00
2019-05-15T02:43:39.862Z,7.72
2019-05-15T02:46:10.259Z,7.63
2019-05-15T02:48:41.014Z,7.60
2019-05-15T02:51:10.610Z,7.44
2019-05-15T02:53:39.978Z,7.68
2019-05-15T02:56:11.353Z,7.44
2019-05-15T02:58:40.262Z,7.44
2019-05-15T03:01:09.667Z,7.20
2019-05-15T03:03:39.291Z,6.91
2019-05-15T03:06:09.902Z,7.08
2019-05-15T03:08:39.973Z,7.42
2019-05-15T03:11:10.549Z,7.47
2019-05-15T03:13:39.639Z,7.50
2019-05-15T03:16:10.133Z,7.40
2019-05-15T03:18:40.036Z,7.47
2019-05-15T03:21:09.494Z,7.57
2019-05-15T03:23:40.532Z,7.51
2019-05-15T03:26:09.849Z,7.63
2019-05-15T03:28:39.433Z,7.92
2019-05-15T03:31:33.319Z,7.85
2019-05-15T03:33:46.351Z,7.75
2019-05-15T03:36:13.309Z,7.61
2019-05-15T03:38:42.070Z,7.80
2019-05-15T03:41:11.676Z,7.80
2019-05-15T03:43:42.871Z,7.19
2019-05-15T03:46:12.735Z,7.25
2019-05-15T03:48:41.628Z,7.23
2019-05-15T03:51:11.030Z,6.82
2019-05-15T03:53:41.072Z,6.91
2019-05-15T03:56:10.247Z,6.67
2019-05-15T03:58:40.243Z,6.63
2019-05-15T04:01:28.262Z,6.71
2019-05-15T04:03:40.815Z,6.73
2019-05-15T04:06:10.374Z,6.92
2019-05-15T04:08:39.722Z,6.42
2019-05-15T04:11:09.488Z,6.95
2019-05-15T04:13:39.609Z,6.80
2019-05-15T04:16:10.400Z,6.84
2019-05-15T04:18:40.026Z,6.66
2019-05-15T04:21:09.852Z,6.37
2019-05-15T04:23:39.523Z,6.64
2019-05-15T04:26:11.048Z,6.64
2019-05-15T04:28:42.252Z,6.35
2019-05-15T04:31:11.720Z,6.52
2019-05-15T04:33:40.698Z,6.59
2019-05-15T04:36:10.221Z,6.52
2019-05-15T04:38:39.615Z,6.59
2019-05-15T04:41:10.165Z,6.37
2019-05-15T04:43:44.549Z,6.66
2019-05-15T04:46:10.327Z,6.69
2019-05-15T04:48:40.043Z,6.71
2019-05-15T04:51:09.939Z,6.97
2019-05-15T04:53:39.830Z,7.03
2019-05-15T04:56:09.948Z,6.93
2019-05-15T04:58:39.778Z,6.68
2019-05-15T05:01:10.178Z,6.69
2019-05-15T05:03:39.812Z,6.71
2019-05-15T05:06:10.071Z,6.57
2019-05-15T05:08:40.052Z,6.68
2019-05-15T05:11:10.115Z,6.88
2019-05-15T05:13:39.504Z,7.02
2019-05-15T05:16:09.825Z,6.95
2019-05-15T05:18:40.995Z,7.00
2019-05-15T05:21:10.229Z,6.88
2019-05-15T05:23:39.323Z,6.95
2019-05-15T05:26:11.124Z,6.95
2019-05-15T05:28:39.155Z,6.72
2019-05-15T05:31:08.968Z,6.89
2019-05-15T05:33:38.266Z,6.77
2019-05-15T05:36:08.173Z,6.78
2019-05-15T05:38:38.766Z,7.26
2019-05-15T05:41:08.534Z,7.34
2019-05-15T05:43:38.376Z,7.48
2019-05-15T05:46:09.258Z,7.82
2019-05-15T05:48:38.575Z,7.87
2019-05-15T05:51:09.305Z,7.83
2019-05-15T05:53:38.578Z,8.08
2019-05-15T05:56:09.095Z,8.25
2019-05-15T05:58:38.961Z,8.37
2019-05-15T06:01:09.631Z,8.60
2019-05-15T06:03:38.933Z,8.60
2019-05-15T06:06:09.747Z,8.59
2019-05-15T06:08:39.621Z,8.74
2019-05-15T06:11:09.725Z,8.64
2019-05-15T06:13:39.066Z,9.05
2019-05-15T06:16:08.883Z,8.97
2019-05-15T06:18:38.783Z,9.05
2019-05-15T06:21:09.341Z,9.00
2019-05-15T06:23:44.866Z,8.90
2019-05-15T06:26:10.016Z,9.10
2019-05-15T06:28:39.572Z,8.84
2019-05-15T06:31:09.200Z,9.30
2019-05-15T06:33:39.100Z,8.68
2019-05-15T06:36:09.325Z,8.96
2019-05-15T06:38:39.347Z,9.33
2019-05-15T06:41:09.108Z,9.11
2019-05-15T06:43:38.847Z,8.96
2019-05-15T06:46:09.357Z,9.28
2019-05-15T06:48:38.289Z,9.25
2019-05-15T06:51:08.857Z,9.45
2019-05-15T06:53:38.596Z,9.28
2019-05-15T06:56:08.748Z,9.58
2019-05-15T06:58:38.649Z,8.73
2019-05-15T07:01:10.177Z,9.26
2019-05-15T07:03:39.594Z,8.58
2019-05-15T07:06:09.826Z,9.35
2019-05-15T07:08:38.644Z,9.46
2019-05-15T07:11:08.732Z,9.78
2019-05-15T07:13:38.422Z,9.29
2019-05-15T07:16:08.447Z,9.41
2019-05-15T07:18:39.073Z,9.59
2019-05-15T07:21:10.286Z,9.64
2019-05-15T07:23:39.349Z,9.70
2019-05-15T07:26:09.659Z,9.47
2019-05-15T07:28:38.571Z,9.66
2019-05-15T07:31:11.493Z,10.24
2019-05-15T07:33:43.338Z,9.92
2019-05-15T07:36:10.562Z,9.92
2019-05-15T07:38:39.456Z,10.12
2019-05-15T07:41:10.182Z,10.24
2019-05-15T07:43:39.696Z,9.98
2019-05-15T07:46:09.420Z,9.86
2019-05-15T07:48:38.631Z,9.90
2019-05-15T07:51:11.536Z,9.68
2019-05-15T07:53:38.850Z,9.94
2019-05-15T07:56:11.690Z,9.99
2019-05-15T07:58:39.190Z,10.20
2019-05-15T08:01:10.023Z,10.15
2019-05-15T08:03:55.030Z,10.09
2019-05-15T08:06:10.572Z,10.55
2019-05-15T08:08:39.641Z,10.40
2019-05-15T08:11:20.132Z,10.35
2019-05-15T08:13:40.317Z,10.74
2019-05-15T08:16:10.128Z,9.86
2019-05-15T08:18:39.500Z,10.37
2019-05-15T08:21:09.151Z,10.42
2019-05-15T08:23:39.099Z,9.98
2019-05-15T08:26:09.216Z,10.03
2019-05-15T08:28:38.409Z,10.14
2019-05-15T08:31:10.271Z,10.39
2019-05-15T08:33:38.889Z,10.35
2019-05-15T08:36:08.590Z,10.31
2019-05-15T08:38:38.332Z,10.98
2019-05-15T08:41:11.371Z,10.99
2019-05-15T08:43:38.506Z,11.25
2019-05-15T08:46:08.493Z,11.06
2019-05-15T08:48:38.334Z,11.23
2019-05-15T08:51:08.729Z,10.77
2019-05-15T08:53:38.205Z,10.65
2019-05-15T08:56:08.529Z,10.96
2019-05-15T08:58:38.325Z,10.80
2019-05-15T09:01:09.689Z,11.23
2019-05-15T09:03:38.933Z,11.06
2019-05-15T09:06:09.054Z,10.77
2019-05-15T09:08:38.998Z,11.19
2019-05-15T09:11:09.482Z,11.36
2019-05-15T09:13:43.444Z,11.33
2019-05-15T09:16:09.738Z,11.64
2019-05-15T09:18:39.253Z,11.17
2019-05-15T09:21:09.103Z,11.29
2019-05-15T09:23:38.806Z,11.27
2019-05-15T09:26:09.347Z,11.23
2019-05-15T09:28:39.038Z,11.29
2019-05-15T09:31:09.226Z,11.44
2019-05-15T09:33:38.858Z,11.70
2019-05-15T09:36:09.013Z,11.71
2019-05-15T09:38:39.093Z,10.91
2019-05-15T09:41:10.273Z,11.41
2019-05-15T09:43:42.215Z,11.50
2019-05-15T09:46:10.612Z,11.65
2019-05-15T09:48:39.721Z,11.51
2019-05-15T09:51:09.520Z,11.50
2019-05-15T09:53:39.478Z,11.83
2019-05-15T09:56:09.788Z,12.24
2019-05-15T09:58:38.607Z,11.80
2019-05-15T10:01:08.643Z,12.10
2019-05-15T10:03:39.110Z,11.63
2019-05-15T10:06:09.079Z,11.75
2019-05-15T10:08:39.734Z,12.29
2019-05-15T10:11:09.351Z,12.49
2019-05-15T10:13:38.616Z,12.17
2019-05-15T10:16:08.582Z,11.94
2019-05-15T10:18:39.084Z,11.96
2019-05-15T10:21:09.408Z,12.18
2019-05-15T10:23:40.385Z,12.51
2019-05-15T10:26:13.929Z,12.86
2019-05-15T10:28:40.890Z,12.81
2019-05-15T10:31:10.578Z,12.51
2019-05-15T10:33:39.947Z,12.38
2019-05-15T10:36:10.148Z,12.63
2019-05-15T10:38:39.418Z,12.57
2019-05-15T10:41:15.017Z,12.19
2019-05-15T10:43:45.940Z,12.60
2019-05-15T10:46:13.143Z,12.82
2019-05-15T10:48:42.438Z,12.57
2019-05-15T10:51:11.840Z,12.56
2019-05-15T10:53:40.689Z,12.94
2019-05-15T10:56:10.341Z,13.13
2019-05-15T10:58:39.485Z,13.02
2019-05-15T11:01:11.307Z,12.60
2019-05-15T11:03:40.160Z,12.60
2019-05-15T11:06:09.896Z,12.65
2019-05-15T11:08:40.743Z,12.72
2019-05-15T11:11:10.242Z,12.42
2019-05-15T11:13:39.235Z,12.91
2019-05-15T11:16:08.944Z,12.82
2019-05-15T11:18:39.362Z,13.15
2019-05-15T11:21:08.880Z,13.22
2019-05-15T11:23:39.441Z,13.13
2019-05-15T11:26:09.332Z,13.51
2019-05-15T11:28:39.328Z,12.58
2019-05-15T11:31:10.462Z,12.87
2019-05-15T11:33:40.126Z,13.26
2019-05-15T11:36:09.712Z,13.10
2019-05-15T11:38:38.694Z,13.66
2019-05-15T11:41:08.657Z,13.32
2019-05-15T11:43:38.715Z,13.55
2019-05-15T11:46:09.950Z,13.42
2019-05-15T11:48:40.521Z,13.79
2019-05-15T11:51:09.997Z,13.18
2019-05-15T11:53:39.803Z,13.29
2019-05-15T11:56:09.781Z,13.88
2019-05-15T11:58:39.043Z,13.98
2019-05-15T12:01:08.955Z,13.29
2019-05-15T12:03:38.514Z,13.17
2019-05-15T12:06:18.528Z,13.53
2019-05-15T12:08:38.722Z,13.69
2019-05-15T12:11:11.921Z,13.62
2019-05-15T12:13:38.838Z,13.59
2019-05-15T12:16:08.435Z,13.95
2019-05-15T12:18:39.013Z,13.92
2019-05-15T12:21:09.214Z,13.81
2019-05-15T12:23:38.875Z,13.92
2019-05-15T12:26:09.028Z,14.12
2019-05-15T12:31:10.222Z,13.84
2019-05-15T12:33:39.088Z,13.56
2019-05-15T12:36:10.795Z,14.08
2019-05-15T12:38:40.013Z,13.88
2019-05-15T13:01:18.443Z,14.67
2019-05-15T13:03:45.335Z,14.32
2019-05-15T13:06:14.261Z,14.75
2019-05-15T13:08:43.119Z,14.74
2019-05-15T13:11:15.155Z,14.39
2019-05-15T13:13:43.562Z,15.01
2019-05-15T13:16:12.966Z,15.26
2019-05-15T13:18:41.858Z,15.20
2019-05-15T13:21:11.772Z,15.44
2019-05-15T13:23:40.575Z,14.64
2019-05-15T13:26:22.962Z,15.09
2019-05-15T13:28:40.296Z,15.24
2019-05-15T13:31:09.901Z,15.24
2019-05-15T13:33:38.993Z,14.89
2019-05-15T13:36:09.050Z,15.82
2019-05-15T13:38:38.245Z,15.72
2019-05-15T13:41:09.487Z,15.09
2019-05-15T13:43:38.633Z,15.67
2019-05-15T13:46:09.893Z,15.43
2019-05-15T13:48:38.815Z,15.42
2019-05-15T13:51:07.890Z,15.57
2019-05-15T13:53:38.461Z,15.58
2019-05-15T13:56:08.118Z,16.11
2019-05-15T13:58:38.788Z,15.15
2019-05-15T14:01:09.372Z,15.77
2019-05-15T14:03:39.154Z,15.76
2019-05-15T14:06:10.065Z,14.81
2019-05-15T14:08:38.997Z,15.85
2019-05-15T14:11:08.829Z,16.34
2019-05-15T14:13:39.202Z,14.99
2019-05-15T14:16:09.745Z,14.94
2019-05-15T14:18:40.439Z,15.32
2019-05-15T14:21:09.955Z,15.52
2019-05-15T14:23:38.846Z,15.60
2019-05-15T14:26:17.800Z,16.17
2019-05-15T14:28:39.086Z,16.40
2019-05-15T14:31:09.726Z,17.15
2019-05-15T14:33:39.040Z,16.87
2019-05-15T14:36:08.808Z,16.30
2019-05-15T14:38:37.979Z,16.11
2019-05-15T14:41:08.844Z,16.93
2019-05-15T14:43:38.402Z,16.31
2019-05-15T14:46:08.098Z,15.63
2019-05-15T14:48:38.664Z,16.16
2019-05-15T14:51:08.775Z,16.51
2019-05-15T14:53:38.640Z,16.57
2019-05-15T14:56:08.785Z,16.95
2019-05-15T14:58:38.721Z,16.82
2019-05-15T15:01:12.480Z,16.56
2019-05-15T15:03:39.020Z,16.28
2019-05-15T15:06:08.762Z,16.78
2019-05-15T15:08:37.823Z,17.27
2019-05-15T15:11:08.737Z,16.73
2019-05-15T15:13:38.194Z,17.04
2019-05-15T15:16:08.376Z,16.79
2019-05-15T15:18:38.612Z,17.33
2019-05-15T15:21:08.761Z,17.65
2019-05-15T15:23:38.811Z,16.90
2019-05-15T15:26:08.968Z,17.02
2019-05-15T15:28:40.022Z,17.70
2019-05-15T15:31:09.505Z,16.67
2019-05-15T15:33:39.247Z,17.46
2019-05-15T15:36:08.924Z,16.47
2019-05-15T15:38:43.729Z,17.22
2019-05-15T15:41:08.973Z,17.33
2019-05-15T15:43:38.759Z,16.84
2019-05-15T15:46:08.747Z,17.10
2019-05-15T15:48:39.144Z,17.76
2019-05-15T15:51:09.359Z,17.76
2019-05-15T15:53:39.055Z,16.54
2019-05-15T15:56:10.619Z,17.33
2019-05-15T15:58:39.816Z,18.26
2019-05-15T16:01:09.320Z,17.73
2019-05-15T16:03:38.223Z,17.82
2019-05-15T16:06:07.210Z,17.15
2019-05-15T16:08:51.643Z,16.58
2019-05-15T16:11:08.880Z,17.72
2019-05-15T16:13:38.574Z,17.19
2019-05-15T16:16:08.560Z,17.74
2019-05-15T16:18:38.376Z,16.67
2019-05-15T16:21:08.325Z,16.60
2019-05-15T16:23:38.551Z,17.08
2019-05-15T16:26:09.265Z,17.98
2019-05-15T16:28:38.901Z,17.02
2019-05-15T16:31:08.937Z,17.90
2019-05-15T16:33:39.037Z,17.48
2019-05-15T16:36:09.065Z,16.20
2019-05-15T16:38:38.977Z,15.96
2019-05-15T16:41:08.953Z,17.02
2019-05-15T16:43:38.193Z,16.66
2019-05-15T16:46:09.165Z,15.92
2019-05-15T16:48:38.944Z,17.03
2019-05-15T16:51:10.902Z,17.51
2019-05-15T16:53:39.895Z,17.70
2019-05-15T16:56:09.297Z,16.20
2019-05-15T16:58:38.575Z,16.86
2019-05-15T17:01:08.007Z,15.58
2019-05-15T17:03:38.085Z,16.30
2019-05-15T17:06:09.426Z,16.55
2019-05-15T17:08:38.671Z,17.26
2019-05-15T17:11:08.470Z,16.09
2019-05-15T17:13:39.398Z,17.22
2019-05-15T17:16:08.216Z,16.17
2019-05-15T17:18:38.136Z,14.75
2019-05-15T17:21:10.100Z,15.88
2019-05-15T17:23:38.180Z,16.21
2019-05-15T17:26:08.891Z,16.30
2019-05-15T17:28:38.302Z,15.98
2019-05-15T17:31:09.208Z,16.52
2019-05-15T17:33:38.237Z,16.33
2019-05-15T17:36:07.326Z,16.05
2019-05-15T17:38:38.122Z,16.31
2019-05-15T17:41:08.472Z,16.21
2019-05-15T17:43:37.907Z,16.35
2019-05-15T17:46:08.898Z,16.99
2019-05-15T17:48:38.918Z,15.30
2019-05-15T17:51:09.118Z,15.56
2019-05-15T17:53:38.475Z,15.84
2019-05-15T17:56:08.476Z,15.53
2019-05-15T17:58:38.118Z,15.46
2019-05-15T18:01:08.858Z,16.25
2019-05-15T18:03:39.197Z,16.22
2019-05-15T18:06:08.561Z,15.61
2019-05-15T18:08:39.046Z,14.52
2019-05-15T18:11:08.577Z,15.01
2019-05-15T18:13:38.191Z,15.01
2019-05-15T18:16:13.396Z,15.89
2019-05-15T18:18:38.752Z,15.41
2019-05-15T18:21:08.907Z,14.92
2019-05-15T18:23:38.859Z,14.86
2019-05-15T18:26:09.029Z,15.28
2019-05-15T18:28:38.881Z,14.53
2019-05-15T18:31:08.970Z,15.22
2019-05-15T18:33:38.690Z,14.27
2019-05-15T18:36:09.575Z,14.97
2019-05-15T18:38:38.876Z,14.69
2019-05-15T18:41:09.088Z,13.27
2019-05-15T18:43:38.109Z,12.89
2019-05-15T18:46:09.033Z,13.26
2019-05-15T18:48:38.042Z,13.43
2019-05-15T18:51:08.119Z,13.16
2019-05-15T18:53:39.026Z,12.40
2019-05-15T18:56:09.150Z,12.25
2019-05-15T18:58:38.252Z,12.46
2019-05-15T19:01:09.280Z,12.37
2019-05-15T19:03:38.693Z,12.69
2019-05-15T19:06:08.891Z,11.99
2019-05-15T19:08:38.735Z,12.33
2019-05-15T19:11:07.996Z,12.34
2019-05-15T19:13:38.788Z,12.36
2019-05-15T19:16:09.565Z,11.59
2019-05-15T19:18:38.634Z,11.76
2019-05-15T19:21:08.176Z,11.58
2019-05-15T19:23:38.085Z,11.49
2019-05-15T19:26:09.253Z,11.87
2019-05-15T19:28:39.238Z,11.48
2019-05-15T19:31:22.918Z,11.37
2019-05-15T19:33:43.584Z,11.50
2019-05-15T19:36:12.684Z,11.17
2019-05-15T19:38:41.566Z,11.07
2019-05-15T19:41:11.418Z,11.27
2019-05-15T19:43:40.785Z,10.73
2019-05-15T19:46:10.699Z,10.86
2019-05-15T19:48:39.625Z,11.24
2019-05-15T19:51:10.486Z,11.20
2019-05-15T19:53:39.426Z,11.03
2019-05-15T19:56:09.111Z,11.03
2019-05-15T19:58:37.920Z,10.82
2019-05-15T20:01:08.142Z,10.68
2019-05-15T20:03:49.175Z,10.65
2019-05-15T20:06:08.465Z,10.76
2019-05-15T20:08:38.539Z,10.77
2019-05-15T20:11:10.420Z,10.55
2019-05-15T20:13:38.948Z,10.77
2019-05-15T20:16:08.966Z,10.81
2019-05-15T20:18:38.573Z,10.75
2019-05-15T20:21:08.967Z,10.66
2019-05-15T20:23:38.279Z,10.72
2019-05-15T20:26:08.439Z,10.53
2019-05-15T20:28:39.270Z,10.69
2019-05-15T20:31:09.178Z,10.85
2019-05-15T20:33:38.070Z,10.18
2019-05-15T20:36:09.048Z,10.21
2019-05-15T20:38:39.512Z,9.86
2019-05-15T20:41:09.576Z,10.34
2019-05-15T20:43:38.749Z,10.36
2019-05-15T20:46:08.620Z,10.02
2019-05-15T20:48:38.268Z,10.17
2019-05-15T20:51:08.185Z,10.33
2019-05-15T20:53:38.008Z,10.11
2019-05-15T20:56:08.368Z,10.16
2019-05-15T20:58:38.296Z,10.22
2019-05-15T21:01:09.125Z,10.07
2019-05-15T21:03:38.174Z,10.16
2019-05-15T21:06:09.170Z,10.08
2019-05-15T21:08:38.626Z,10.28
2019-05-15T21:11:11.869Z,10.26
2019-05-15T21:13:41.013Z,10.34
2019-05-15T21:16:10.207Z,10.42
2019-05-15T21:18:41.447Z,10.01
2019-05-15T21:21:10.503Z,10.17
2019-05-15T21:23:39.544Z,9.95
2019-05-15T21:26:11.048Z,10.21
2019-05-15T21:28:40.092Z,9.73
2019-05-15T21:31:09.812Z,9.69
2019-05-15T21:33:38.991Z,9.80
2019-05-15T21:36:08.063Z,9.42
2019-05-15T21:38:38.874Z,9.83
2019-05-15T21:41:08.101Z,10.29
2019-05-15T21:43:37.060Z,10.02
2019-05-15T21:46:08.124Z,10.19
2019-05-15T21:48:38.262Z,9.45
2019-05-15T21:51:11.375Z,9.91
2019-05-15T21:53:38.969Z,10.05
2019-05-15T21:56:09.584Z,10.04
2019-05-15T21:58:38.459Z,10.00
2019-05-15T22:01:10.497Z,9.69
2019-05-15T22:03:39.822Z,9.91
2019-05-15T22:06:09.430Z,9.87
2019-05-15T22:08:38.537Z,9.88
2019-05-15T22:11:07.733Z,9.57
2019-05-15T22:13:39.090Z,9.58
2019-05-15T22:16:08.198Z,9.50
2019-05-15T22:18:38.421Z,9.47
2019-05-15T22:21:07.939Z,9.25
2019-05-15T22:23:38.459Z,8.88
2019-05-15T22:26:08.423Z,9.39
2019-05-15T22:28:38.607Z,9.32
2019-05-15T22:31:08.908Z,9.22
2019-05-15T22:33:37.886Z,9.01
2019-05-15T22:36:08.398Z,9.31
2019-05-15T22:38:37.407Z,9.54
2019-05-15T22:41:08.265Z,9.36
2019-05-15T22:43:39.065Z,9.51
2019-05-15T22:46:10.738Z,9.63
2019-05-15T22:48:38.296Z,9.44
2019-05-15T22:51:07.290Z,8.84
2019-05-15T22:53:38.172Z,8.88
2019-05-15T22:56:09.138Z,9.07
2019-05-15T22:58:38.679Z,9.19
2019-05-15T23:01:09.363Z,8.93
2019-05-15T23:03:39.396Z,9.44
2019-05-15T23:06:09.237Z,9.41
2019-05-15T23:08:38.591Z,9.44
2019-05-15T23:11:09.594Z,9.41
2019-05-15T23:13:38.996Z,9.23
2019-05-15T23:16:08.900Z,9.08
2019-05-15T23:18:37.791Z,9.12
2019-05-15T23:21:08.468Z,9.44
2019-05-15T23:23:38.024Z,9.45
2019-05-15T23:26:07.025Z,9.33
2019-05-15T23:28:35.914Z,9.40
2019-05-15T23:31:04.808Z,9.15
2019-05-15T23:33:33.695Z,9.04
2019-05-15T23:36:02.689Z,9.07
2019-05-15T23:38:31.580Z,9.09
2019-05-15T23:41:00.472Z,8.81
2019-05-15T23:43:29.378Z,8.83
2019-05-15T23:45:58.913Z,8.79
2019-05-15T23:48:28.463Z,8.79
2019-05-15T23:50:59.137Z,8.69
2019-05-15T23:53:28.825Z,8.94
2019-05-15T23:55:58.760Z,9.11
2019-05-15T23:58:29.165Z,8.13
